createdAt,value
2023-04-19T00:02:18.393Z,9.41
2023-04-19T00:04:48.318Z,9.23
2023-04-19T00:07:16.958Z,9.20
2023-04-19T00:09:44.427Z,9.30
2023-04-19T00:12:11.811Z,9.26
2023-04-19T00:14:39.197Z,9.35
2023-04-19T00:17:06.640Z,9.31
2023-04-19T00:19:34.042Z,9.26
2023-04-19T00:22:02.749Z,9.22
2023-04-19T00:24:30.177Z,9.15
2023-04-19T00:26:58.947Z,9.20
2023-04-19T00:29:26.339Z,9.32
2023-04-19T00:31:53.813Z,9.33
2023-04-19T00:34:21.401Z,9.28
2023-04-19T00:36:48.884Z,9.27
2023-04-19T00:39:17.594Z,9.26
2023-04-19T00:41:45.013Z,9.30
2023-04-19T00:44:12.459Z,9.14
2023-04-19T00:46:40.285Z,9.11
2023-04-19T00:49:08.249Z,9.06
2023-04-19T00:51:36.072Z,9.23
2023-04-19T00:54:04.243Z,9.04
2023-04-19T00:56:34.977Z,9.02
2023-04-19T00:59:02.958Z,9.06
2023-04-19T01:01:30.373Z,9.09
2023-04-19T01:03:57.922Z,9.09
2023-04-19T01:06:25.561Z,8.82
2023-04-19T01:08:52.930Z,8.94
2023-04-19T01:11:20.446Z,9.01
2023-04-19T01:13:49.152Z,8.88
2023-04-19T01:16:16.710Z,8.90
2023-04-19T01:18:44.123Z,8.82
2023-04-19T01:21:12.731Z,8.76
2023-04-19T01:23:41.453Z,8.71
2023-04-19T01:26:08.886Z,8.84
2023-04-19T01:28:36.272Z,8.89
2023-04-19T01:31:03.777Z,8.75
2023-04-19T01:33:31.230Z,8.66
2023-04-19T01:35:58.632Z,8.76
2023-04-19T01:38:26.046Z,8.81
2023-04-19T01:40:56.760Z,8.57
2023-04-19T01:43:24.144Z,8.65
2023-04-19T01:45:51.629Z,8.69
2023-04-19T01:48:19.055Z,8.58
2023-04-19T01:50:46.472Z,8.59
2023-04-19T01:53:13.988Z,8.63
2023-04-19T01:55:41.392Z,8.60
2023-04-19T01:58:10.061Z,8.74
2023-04-19T02:00:37.480Z,8.80
2023-04-19T02:03:05.112Z,8.80
2023-04-19T02:05:32.708Z,8.66
2023-04-19T02:08:01.239Z,8.80
2023-04-19T02:10:28.635Z,8.82
2023-04-19T02:12:56.018Z,8.56
2023-04-19T02:15:24.697Z,8.50
2023-04-19T02:17:52.134Z,8.52
2023-04-19T02:20:19.667Z,8.53
2023-04-19T02:22:47.842Z,8.53
2023-04-19T02:25:15.649Z,8.40
2023-04-19T02:27:43.066Z,8.49
2023-04-19T02:30:11.436Z,8.38
2023-04-19T02:32:40.205Z,8.54
2023-04-19T02:35:08.314Z,8.60
2023-04-19T02:37:35.674Z,8.38
2023-04-19T02:40:03.110Z,8.30
2023-04-19T02:42:30.636Z,8.53
2023-04-19T02:44:58.234Z,8.35
2023-04-19T02:47:25.659Z,8.28
2023-04-19T02:49:54.398Z,8.43
2023-04-19T02:52:21.797Z,8.44
2023-04-19T02:54:49.344Z,8.60
2023-04-19T02:57:16.728Z,8.35
2023-04-19T02:59:44.090Z,8.40
2023-04-19T03:02:11.553Z,8.29
2023-04-19T03:04:38.931Z,8.15
2023-04-19T03:07:10.739Z,8.28
2023-04-19T03:09:38.251Z,8.07
2023-04-19T03:12:06.237Z,8.23
2023-04-19T03:14:34.623Z,8.31
2023-04-19T03:17:02.015Z,8.17
2023-04-19T03:19:29.484Z,8.27
2023-04-19T03:21:56.889Z,8.27
2023-04-19T03:24:30.011Z,8.04
2023-04-19T03:26:57.494Z,8.18
2023-04-19T03:29:25.224Z,8.03
2023-04-19T03:31:52.712Z,8.11
2023-04-19T03:34:20.190Z,7.97
2023-04-19T03:36:47.558Z,8.03
2023-04-19T03:39:14.943Z,8.17
2023-04-19T03:41:43.699Z,7.83
2023-04-19T03:44:11.082Z,7.77
2023-04-19T03:46:38.558Z,7.84
2023-04-19T03:49:06.201Z,7.88
2023-04-19T03:51:33.622Z,7.78
2023-04-19T03:54:01.336Z,7.93
2023-04-19T03:56:28.866Z,7.77
2023-04-19T03:58:57.627Z,7.61
2023-04-19T04:01:25.362Z,7.77
2023-04-19T04:03:53.140Z,7.96
2023-04-19T04:06:20.732Z,7.80
2023-04-19T04:08:48.121Z,7.76
2023-04-19T04:11:15.561Z,7.86
2023-04-19T04:13:43.157Z,7.66
2023-04-19T04:16:11.951Z,7.67
2023-04-19T04:18:39.555Z,7.44
2023-04-19T04:21:07.421Z,7.43
2023-04-19T04:23:35.029Z,7.62
2023-04-19T04:26:04.244Z,7.41
2023-04-19T04:28:32.153Z,7.41
2023-04-19T04:31:00.319Z,7.48
2023-04-19T04:33:29.380Z,7.40
2023-04-19T04:35:57.843Z,7.24
2023-04-19T04:38:25.572Z,7.10
2023-04-19T04:40:54.457Z,7.19
2023-04-19T04:43:22.627Z,6.98
2023-04-19T04:45:50.526Z,6.99
2023-04-19T04:48:18.074Z,6.96
2023-04-19T04:50:46.779Z,7.00
2023-04-19T04:53:14.228Z,7.09
2023-04-19T04:55:41.761Z,7.18
2023-04-19T04:58:09.302Z,7.09
2023-04-19T05:00:36.774Z,7.28
2023-04-19T05:03:04.534Z,6.95
2023-04-19T05:05:32.073Z,7.04
2023-04-19T05:08:01.140Z,7.13
2023-04-19T05:10:28.743Z,7.32
2023-04-19T05:12:56.517Z,7.21
2023-04-19T05:15:24.136Z,7.64
2023-04-19T05:17:51.551Z,7.48
2023-04-19T05:20:19.197Z,7.66
2023-04-19T05:22:46.813Z,8.06
2023-04-19T05:25:15.693Z,7.40
2023-04-19T05:27:43.087Z,7.54
2023-04-19T05:30:10.848Z,7.24
2023-04-19T05:32:38.272Z,7.19
2023-04-19T05:35:06.825Z,6.98
2023-04-19T05:37:34.196Z,6.95
2023-04-19T05:40:01.607Z,7.16
2023-04-19T05:42:31.541Z,7.28
2023-04-19T05:44:58.899Z,7.35
2023-04-19T05:47:26.293Z,7.21
2023-04-19T05:49:53.676Z,7.41
2023-04-19T05:52:21.051Z,7.41
2023-04-19T05:54:48.453Z,7.19
2023-04-19T05:57:15.824Z,7.51
2023-04-19T05:59:44.556Z,7.75
2023-04-19T06:02:12.103Z,7.51
2023-04-19T06:04:39.926Z,7.52
2023-04-19T06:07:17.442Z,7.26
2023-04-19T06:09:54.539Z,7.42
2023-04-19T06:12:21.925Z,7.52
2023-04-19T06:14:51.140Z,7.32
2023-04-19T06:17:23.397Z,7.07
2023-04-19T06:19:51.069Z,6.92
2023-04-19T06:22:18.508Z,7.69
2023-04-19T06:24:46.259Z,7.68
2023-04-19T06:27:13.745Z,7.06
2023-04-19T06:29:41.400Z,7.64
2023-04-19T06:32:10.518Z,7.68
2023-04-19T06:34:37.897Z,7.74
2023-04-19T06:37:05.288Z,7.70
2023-04-19T06:39:32.744Z,7.67
2023-04-19T06:42:00.165Z,7.59
2023-04-19T06:44:27.919Z,7.75
2023-04-19T06:46:55.456Z,8.10
2023-04-19T06:49:24.454Z,8.31
2023-04-19T06:51:51.907Z,7.66
2023-04-19T06:54:19.544Z,7.78
2023-04-19T06:56:48.670Z,8.38
2023-04-19T06:59:19.685Z,8.13
2023-04-19T07:01:48.248Z,8.20
2023-04-19T07:04:16.499Z,8.28
2023-04-19T07:06:49.168Z,8.55
2023-04-19T07:09:16.829Z,8.66
2023-04-19T07:11:44.250Z,8.79
2023-04-19T07:14:11.674Z,8.61
2023-04-19T07:16:39.094Z,8.79
2023-04-19T07:19:06.501Z,8.78
2023-04-19T07:21:35.086Z,8.07
2023-04-19T07:24:03.909Z,8.19
2023-04-19T07:26:31.389Z,8.11
2023-04-19T07:28:58.768Z,8.33
2023-04-19T07:31:26.523Z,8.26
2023-04-19T07:33:54.650Z,8.46
2023-04-19T07:36:22.237Z,8.70
2023-04-19T07:38:49.746Z,8.09
2023-04-19T07:41:18.829Z,9.12
2023-04-19T07:43:46.225Z,9.40
2023-04-19T07:46:16.179Z,9.62
2023-04-19T07:48:43.770Z,9.28
2023-04-19T07:51:12.083Z,8.28
2023-04-19T07:53:41.517Z,9.21
2023-04-19T07:56:11.008Z,9.27
2023-04-19T07:58:42.304Z,9.41
2023-04-19T08:01:10.408Z,9.12
2023-04-19T08:03:38.621Z,9.00
2023-04-19T08:06:08.181Z,9.31
2023-04-19T08:08:35.710Z,9.69
2023-04-19T08:11:03.279Z,9.89
2023-04-19T08:13:31.133Z,9.86
2023-04-19T08:18:30.192Z,10.17
2023-04-19T08:20:58.151Z,10.05
2023-04-19T08:23:29.696Z,10.15
2023-04-19T08:26:05.890Z,9.93
2023-04-19T08:28:33.239Z,9.82
2023-04-19T08:31:01.976Z,10.64
2023-04-19T08:33:29.647Z,10.34
2023-04-19T08:35:57.163Z,10.96
2023-04-19T08:38:24.607Z,10.60
2023-04-19T08:40:55.022Z,10.84
2023-04-19T08:43:22.626Z,11.42
2023-04-19T08:45:51.330Z,10.19
2023-04-19T08:48:20.154Z,9.99
2023-04-19T08:51:03.665Z,10.03
2023-04-19T08:53:34.827Z,11.08
2023-04-19T08:58:52.024Z,10.97
2023-04-19T09:01:33.600Z,10.89
2023-04-19T09:04:21.697Z,11.38
2023-04-19T09:06:52.855Z,11.30
2023-04-19T09:11:52.982Z,11.17
2023-04-19T09:14:22.150Z,10.21
2023-04-19T09:16:52.012Z,11.02
2023-04-19T09:19:24.735Z,11.92
2023-04-19T09:21:54.761Z,10.63
2023-04-19T09:25:04.436Z,10.93
2023-04-19T09:27:30.122Z,10.58
2023-04-19T09:29:59.303Z,11.17
2023-04-19T09:32:27.627Z,11.86
2023-04-19T09:34:58.243Z,11.15
2023-04-19T09:37:56.829Z,10.78
2023-04-19T09:40:23.671Z,11.18
2023-04-19T09:45:29.814Z,11.15
2023-04-19T09:48:03.035Z,10.99
2023-04-19T09:50:32.728Z,10.13
2023-04-19T09:53:01.412Z,10.86
2023-04-19T09:55:31.573Z,11.16
2023-04-19T09:58:03.246Z,10.54
2023-04-19T10:00:36.022Z,10.18
2023-04-19T10:03:11.255Z,10.91
2023-04-19T10:05:42.173Z,10.66
2023-04-19T10:08:10.957Z,10.86
2023-04-19T10:10:42.430Z,10.68
2023-04-19T10:15:51.239Z,10.77
2023-04-19T10:18:23.535Z,10.62
2023-04-19T10:20:56.331Z,10.60
2023-04-19T10:23:24.211Z,10.26
2023-04-19T10:25:56.717Z,9.88
2023-04-19T10:28:24.152Z,10.78
2023-04-19T10:30:56.269Z,10.68
2023-04-19T10:33:27.684Z,11.43
2023-04-19T10:35:59.239Z,11.90
2023-04-19T10:38:38.171Z,11.98
2023-04-19T10:41:14.413Z,11.56
2023-04-19T10:43:46.205Z,11.33
2023-04-19T10:46:36.813Z,11.52
2023-04-19T10:49:05.689Z,11.56
2023-04-19T10:51:36.670Z,11.20
2023-04-19T10:54:05.145Z,11.53
2023-04-19T10:56:59.182Z,10.98
2023-04-19T10:59:26.704Z,11.50
2023-04-19T11:01:57.510Z,12.26
2023-04-19T11:05:01.663Z,11.57
2023-04-19T11:07:38.233Z,11.78
2023-04-19T11:10:06.618Z,12.23
2023-04-19T11:12:35.130Z,11.26
2023-04-19T11:15:03.101Z,11.27
2023-04-19T11:17:32.266Z,10.90
2023-04-19T11:20:02.574Z,10.42
2023-04-19T11:22:35.869Z,11.23
2023-04-19T11:25:07.338Z,12.25
2023-04-19T11:27:35.326Z,12.24
2023-04-19T11:30:05.438Z,11.31
2023-04-19T11:32:33.433Z,11.60
2023-04-19T11:35:07.479Z,11.86
2023-04-19T11:37:36.980Z,11.44
2023-04-19T11:40:06.315Z,11.42
2023-04-19T11:42:34.071Z,11.52
2023-04-19T11:45:01.495Z,10.96
2023-04-19T11:47:29.150Z,11.13
2023-04-19T11:49:57.053Z,11.01
2023-04-19T11:52:25.508Z,11.35
2023-04-19T11:54:55.049Z,11.16
2023-04-19T11:57:29.617Z,11.10
2023-04-19T12:00:11.055Z,10.89
2023-04-19T12:02:40.884Z,11.19
2023-04-19T12:05:10.282Z,10.99
2023-04-19T12:07:38.032Z,11.36
2023-04-19T12:10:14.055Z,11.64
2023-04-19T12:12:41.614Z,12.27
2023-04-19T12:15:09.690Z,12.22
2023-04-19T12:17:57.649Z,11.74
2023-04-19T12:20:32.752Z,11.38
2023-04-19T12:23:00.465Z,11.40
2023-04-19T12:25:33.402Z,11.36
2023-04-19T12:28:02.050Z,11.17
2023-04-19T12:30:29.530Z,11.87
2023-04-19T12:32:57.088Z,11.58
2023-04-19T12:35:27.355Z,10.69
2023-04-19T12:37:55.659Z,10.86
2023-04-19T12:40:23.595Z,11.57
2023-04-19T12:42:53.000Z,11.43
2023-04-19T12:45:25.354Z,11.36
2023-04-19T12:47:55.631Z,11.29
2023-04-19T12:50:24.781Z,11.71
2023-04-19T12:53:02.165Z,11.38
2023-04-19T12:55:32.468Z,11.67
2023-04-19T12:58:02.270Z,11.31
2023-04-19T13:00:30.739Z,11.17
2023-04-19T13:02:59.781Z,11.51
2023-04-19T13:05:31.977Z,11.69
2023-04-19T13:08:02.344Z,11.80
2023-04-19T13:10:31.479Z,11.64
2023-04-19T13:13:04.536Z,11.14
2023-04-19T13:15:35.461Z,11.38
2023-04-19T13:18:03.904Z,11.82
2023-04-19T13:20:32.175Z,12.28
2023-04-19T13:23:01.142Z,12.45
2023-04-19T13:25:30.604Z,12.35
2023-04-19T13:27:59.130Z,12.58
2023-04-19T13:30:29.749Z,12.43
2023-04-19T13:32:58.586Z,11.88
2023-04-19T13:35:26.073Z,11.51
2023-04-19T13:37:53.459Z,11.64
2023-04-19T13:40:20.971Z,11.52
2023-04-19T13:42:48.423Z,11.33
2023-04-19T13:45:15.807Z,10.81
2023-04-19T13:47:43.226Z,10.66
2023-04-19T13:50:12.912Z,10.93
2023-04-19T13:52:40.440Z,11.16
2023-04-19T13:55:08.333Z,11.35
2023-04-19T13:57:35.698Z,11.03
2023-04-19T14:00:03.137Z,11.57
2023-04-19T14:02:30.784Z,11.71
2023-04-19T14:04:59.541Z,11.02
2023-04-19T14:07:28.400Z,11.05
2023-04-19T14:09:55.921Z,11.05
2023-04-19T14:12:23.347Z,9.95
2023-04-19T14:14:50.711Z,8.63
2023-04-19T14:17:18.124Z,8.52
2023-04-19T14:19:45.544Z,8.40
2023-04-19T14:22:13.505Z,8.52
2023-04-19T14:24:42.178Z,8.34
2023-04-19T14:27:11.443Z,8.50
2023-04-19T14:29:39.320Z,8.27
2023-04-19T14:32:21.580Z,8.75
2023-04-19T14:34:52.397Z,8.77
2023-04-19T14:37:19.823Z,9.00
2023-04-19T14:39:48.599Z,8.86
2023-04-19T14:42:16.113Z,9.06
2023-04-19T14:44:43.812Z,8.86
2023-04-19T14:47:11.442Z,9.17
2023-04-19T14:49:38.928Z,9.12
2023-04-19T14:52:06.304Z,8.55
2023-04-19T14:54:33.710Z,8.74
2023-04-19T14:57:02.435Z,8.43
2023-04-19T14:59:30.067Z,8.20
2023-04-19T15:01:57.759Z,8.03
2023-04-19T15:04:25.708Z,8.40
2023-04-19T15:06:53.603Z,8.73
2023-04-19T15:09:21.023Z,8.43
2023-04-19T15:11:48.378Z,8.07
2023-04-19T15:14:17.092Z,8.02
2023-04-19T15:16:44.469Z,7.85
2023-04-19T15:19:11.927Z,7.77
2023-04-19T15:21:39.295Z,7.71
2023-04-19T15:24:07.970Z,7.41
2023-04-19T15:26:35.857Z,7.08
2023-04-19T15:29:03.259Z,7.55
2023-04-19T15:31:32.550Z,7.12
2023-04-19T15:34:02.996Z,7.40
2023-04-19T15:36:31.037Z,7.64
2023-04-19T15:38:59.136Z,8.10
2023-04-19T15:41:26.592Z,7.92
2023-04-19T15:43:54.027Z,7.83
2023-04-19T15:46:21.406Z,8.13
2023-04-19T15:48:50.636Z,8.31
2023-04-19T15:51:18.100Z,7.94
2023-04-19T15:53:45.628Z,7.99
2023-04-19T15:56:13.012Z,8.29
2023-04-19T15:58:40.403Z,8.03
2023-04-19T16:01:09.515Z,8.14
2023-04-19T16:03:37.301Z,7.67
2023-04-19T16:06:06.207Z,7.82
2023-04-19T16:08:34.040Z,7.91
2023-04-19T16:11:01.561Z,7.52
2023-04-19T16:13:31.279Z,7.59
2023-04-19T16:15:58.912Z,7.11
2023-04-19T16:18:26.351Z,7.35
2023-04-19T16:20:54.647Z,7.63
2023-04-19T16:23:25.096Z,7.28
2023-04-19T16:25:53.428Z,7.35
2023-04-19T16:28:25.850Z,7.38
2023-04-19T16:30:53.570Z,8.14
2023-04-19T16:33:21.021Z,7.51
2023-04-19T16:35:51.862Z,7.54
2023-04-19T16:38:19.223Z,7.78
2023-04-19T16:40:48.601Z,7.53
2023-04-19T16:43:16.019Z,7.75
2023-04-19T16:45:43.555Z,7.50
2023-04-19T16:48:11.083Z,7.63
2023-04-19T16:50:38.512Z,7.89
2023-04-19T16:53:06.006Z,7.95
2023-04-19T16:55:33.404Z,7.73
2023-04-19T16:58:02.139Z,7.38
2023-04-19T17:00:29.989Z,7.19
2023-04-19T17:02:57.610Z,7.33
2023-04-19T17:05:28.874Z,7.74
2023-04-19T17:07:56.984Z,7.27
2023-04-19T17:10:25.201Z,7.32
2023-04-19T17:12:55.233Z,6.81
2023-04-19T17:15:24.008Z,6.93
2023-04-19T17:17:54.901Z,7.26
2023-04-19T17:20:22.319Z,7.29
2023-04-19T17:22:49.685Z,6.91
2023-04-19T17:25:17.058Z,6.90
2023-04-19T17:27:44.437Z,6.82
2023-04-19T17:30:12.580Z,7.14
2023-04-19T17:32:41.357Z,7.22
2023-04-19T17:35:09.654Z,7.21
2023-04-19T17:37:37.175Z,7.61
2023-04-19T17:40:05.226Z,7.07
2023-04-19T17:42:32.592Z,7.03
2023-04-19T17:45:00.250Z,7.05
2023-04-19T17:47:27.846Z,7.27
2023-04-19T17:50:06.568Z,7.04
2023-04-19T17:52:34.017Z,7.21
2023-04-19T17:55:02.278Z,7.09
2023-04-19T17:57:29.961Z,7.09
2023-04-19T17:59:57.316Z,7.34
2023-04-19T18:02:24.866Z,6.89
2023-04-19T18:04:52.498Z,6.74
2023-04-19T18:07:21.230Z,6.60
2023-04-19T18:09:48.577Z,6.33
2023-04-19T18:12:15.967Z,6.47
2023-04-19T18:14:43.358Z,6.23
2023-04-19T18:17:10.864Z,6.34
2023-04-19T18:19:38.290Z,6.72
2023-04-19T18:22:05.852Z,7.07
2023-04-19T18:24:35.571Z,7.37
2023-04-19T18:27:04.369Z,7.54
2023-04-19T18:29:31.944Z,7.28
2023-04-19T18:31:59.402Z,7.10
2023-04-19T18:34:28.821Z,7.31
2023-04-19T18:36:59.526Z,7.41
2023-04-19T18:39:26.996Z,7.11
2023-04-19T18:41:57.697Z,6.96
2023-04-19T18:44:49.698Z,7.01
2023-04-19T18:47:13.075Z,6.79
2023-04-19T18:49:40.489Z,6.90
2023-04-19T18:52:08.013Z,7.10
2023-04-19T18:54:35.618Z,6.95
2023-04-19T18:57:22.583Z,6.73
2023-04-19T18:59:51.661Z,7.06
2023-04-19T19:02:20.919Z,7.27
2023-04-19T19:04:56.755Z,7.37
2023-04-19T19:07:34.779Z,7.54
2023-04-19T19:10:09.628Z,7.24
2023-04-19T19:12:46.960Z,6.70
2023-04-19T19:15:14.690Z,6.62
2023-04-19T19:17:43.141Z,6.85
2023-04-19T19:20:11.294Z,6.64
2023-04-19T19:22:38.794Z,6.61
2023-04-19T19:28:06.170Z,6.99
2023-04-19T19:30:39.529Z,7.04
2023-04-19T19:33:07.045Z,7.24
2023-04-19T19:38:06.103Z,7.37
2023-04-19T19:40:33.841Z,7.40
2023-04-19T19:43:02.748Z,7.35
2023-04-19T19:45:30.514Z,7.34
2023-04-19T19:47:59.062Z,7.36
2023-04-19T19:51:05.040Z,7.27
2023-04-19T19:53:19.807Z,7.22
2023-04-19T19:55:47.179Z,7.21
2023-04-19T19:58:42.925Z,7.09
2023-04-19T20:01:04.210Z,7.12
2023-04-19T20:03:37.302Z,7.19
2023-04-19T20:06:35.725Z,7.19
2023-04-19T20:08:56.206Z,7.27
2023-04-19T20:11:25.818Z,7.21
2023-04-19T20:13:54.502Z,7.13
2023-04-19T20:16:21.920Z,7.06
2023-04-19T20:18:49.920Z,7.01
2023-04-19T20:21:19.680Z,7.03
2023-04-19T20:23:47.104Z,6.87
2023-04-19T20:26:14.487Z,6.87
2023-04-19T20:28:41.879Z,6.90
2023-04-19T20:31:10.683Z,6.95
2023-04-19T20:33:41.884Z,6.84
2023-04-19T20:36:09.455Z,6.71
2023-04-19T20:38:36.980Z,6.65
2023-04-19T20:41:04.416Z,6.75
2023-04-19T20:43:32.389Z,6.77
2023-04-19T20:45:59.883Z,6.74
2023-04-19T20:48:28.625Z,6.67
2023-04-19T20:50:56.094Z,6.71
2023-04-19T20:53:23.487Z,6.73
2023-04-19T20:55:51.808Z,6.69
2023-04-19T20:58:19.194Z,6.73
2023-04-19T21:00:46.611Z,6.69
2023-04-19T21:03:14.239Z,6.60
2023-04-19T21:05:43.046Z,6.62
2023-04-19T21:08:10.487Z,6.60
2023-04-19T21:10:37.819Z,6.59
2023-04-19T21:13:05.170Z,6.64
2023-04-19T21:15:32.602Z,6.58
2023-04-19T21:18:00.006Z,6.60
2023-04-19T21:20:27.579Z,6.29
2023-04-19T21:22:56.254Z,6.43
2023-04-19T21:25:23.866Z,6.43
2023-04-19T21:27:51.272Z,6.48
2023-04-19T21:30:20.067Z,6.49
2023-04-19T21:32:48.296Z,6.42
2023-04-19T21:35:15.759Z,6.53
2023-04-19T21:37:43.208Z,6.49
2023-04-19T21:40:12.659Z,6.54
2023-04-19T21:42:40.066Z,6.45
2023-04-19T21:45:08.978Z,6.52
2023-04-19T21:47:36.407Z,6.45
2023-04-19T21:50:04.513Z,6.54
2023-04-19T21:52:31.912Z,6.58
2023-04-19T21:54:59.350Z,6.62
2023-04-19T21:57:28.181Z,6.65
2023-04-19T21:59:55.602Z,6.60
2023-04-19T22:02:23.151Z,6.59
2023-04-19T22:04:50.813Z,6.57
2023-04-19T22:07:19.280Z,6.54
2023-04-19T22:09:46.852Z,6.36
2023-04-19T22:12:14.272Z,6.40
2023-04-19T22:14:43.271Z,6.39
2023-04-19T22:17:10.634Z,6.35
2023-04-19T22:19:38.264Z,6.22
2023-04-19T22:22:05.746Z,6.23
2023-04-19T22:24:33.833Z,6.27
2023-04-19T22:27:02.392Z,6.24
2023-04-19T22:29:29.798Z,6.28
2023-04-19T22:31:58.643Z,6.12
2023-04-19T22:34:26.179Z,6.15
2023-04-19T22:36:53.568Z,6.15
2023-04-19T22:39:21.081Z,6.21
2023-04-19T22:41:48.567Z,6.23
2023-04-19T22:44:15.932Z,6.24
2023-04-19T22:46:43.770Z,6.30
2023-04-19T22:49:12.992Z,6.29
2023-04-19T22:51:42.290Z,6.32
2023-04-19T22:54:09.665Z,6.36
2023-04-19T22:56:37.057Z,6.33
2023-04-19T22:59:04.467Z,6.22
2023-04-19T23:01:32.176Z,6.09
2023-04-19T23:03:59.611Z,6.02
2023-04-19T23:06:29.362Z,6.03
2023-04-19T23:08:56.724Z,5.93
2023-04-19T23:11:25.100Z,6.00
2023-04-19T23:13:53.696Z,6.10
2023-04-19T23:16:22.470Z,5.88
2023-04-19T23:18:49.928Z,6.04
2023-04-19T23:21:17.355Z,5.98
2023-04-19T23:23:46.081Z,5.97
2023-04-19T23:26:13.537Z,6.03
2023-04-19T23:28:40.972Z,5.98
2023-04-19T23:31:08.403Z,6.05
2023-04-19T23:33:36.151Z,6.08
2023-04-19T23:36:03.706Z,6.11
2023-04-19T23:38:31.097Z,6.20
2023-04-19T23:40:59.848Z,6.22
2023-04-19T23:43:27.280Z,6.22
2023-04-19T23:45:54.658Z,6.26
2023-04-19T23:48:22.025Z,6.27
2023-04-19T23:50:49.410Z,6.08
2023-04-19T23:53:16.775Z,6.10
2023-04-19T23:55:44.180Z,6.22
2023-04-19T23:58:12.975Z,6.11
